Leeuwen, Netherlands
Current Conditions -  °F | °C
As of 2:20 PM on Saturday 20 Dec 2014 (Local Time) from EDLN Reporting Station
Broken Clouds Broken Clouds  
Wind Chill: 36°   Ceiling: 2200
Heat Index: 45°   Visibility: 6mi
Dew Point: 39°   Wind: 21mph
Humidity: 81%   Direction: 260°W
Pressure: 30.09"   Gusts: NA
Location:  51.21°N, 6°E
Report Text: EDLN 201320Z 26018KT 210V300 9999 BKN022 07/04 Q1019 RMK ATIS N
Loading
Personal Weather Stations






























Interactive Weather Map New forecast layout! Learn more

10-Day Weather Forecast

Advertisements
Track Severe Weather on mobile